createdAt,value
2022-09-17T00:02:16.661Z,2.15
2022-09-17T00:04:46.081Z,5.10
2022-09-17T00:07:15.701Z,4.82
2022-09-17T00:09:47.652Z,6.13
2022-09-17T00:12:17.042Z,5.43
2022-09-17T00:14:46.685Z,4.30
2022-09-17T00:17:16.092Z,5.00
2022-09-17T00:19:45.486Z,4.65
2022-09-17T00:22:14.876Z,4.28
2022-09-17T00:24:44.486Z,4.70
2022-09-17T00:27:16.474Z,4.43
2022-09-17T00:29:45.868Z,4.40
2022-09-17T00:32:15.241Z,4.93
2022-09-17T00:34:46.635Z,4.40
2022-09-17T00:37:16.054Z,6.38
2022-09-17T00:39:45.481Z,5.43
2022-09-17T00:42:17.529Z,6.00
2022-09-17T00:44:51.157Z,4.72
2022-09-17T00:47:26.440Z,4.32
2022-09-17T00:49:58.361Z,5.07
2022-09-17T00:52:30.052Z,4.65
2022-09-17T00:55:03.084Z,4.10
2022-09-17T00:57:35.107Z,5.78
2022-09-17T01:00:05.077Z,6.75
2022-09-17T01:02:34.468Z,5.07
2022-09-17T01:05:03.854Z,6.10
2022-09-17T01:07:58.718Z,5.75
2022-09-17T01:10:38.849Z,6.05
2022-09-17T01:13:17.315Z,6.63
2022-09-17T01:15:49.796Z,4.72
2022-09-17T01:18:25.835Z,4.65
2022-09-17T01:21:30.741Z,5.50
2022-09-17T01:24:32.777Z,4.80
2022-09-17T01:27:45.634Z,6.53
2022-09-17T01:30:40.078Z,5.45
2022-09-17T01:33:11.772Z,6.80
2022-09-17T01:35:46.465Z,3.97
2022-09-17T01:38:27.424Z,8.25
2022-09-17T01:41:00.400Z,6.82
2022-09-17T01:43:33.101Z,7.28
2022-09-17T01:46:07.006Z,5.47
2022-09-17T01:48:39.033Z,4.25
2022-09-17T01:51:09.441Z,6.40
2022-09-17T01:53:41.579Z,5.22
2022-09-17T01:56:11.002Z,6.90
2022-09-17T01:58:42.226Z,4.72
2022-09-17T02:01:14.247Z,6.75
2022-09-17T02:03:44.824Z,6.68
2022-09-17T02:06:15.630Z,4.85
2022-09-17T02:08:48.286Z,6.18
2022-09-17T02:11:17.862Z,6.53
2022-09-17T02:13:50.079Z,7.82
2022-09-17T02:16:24.546Z,6.07
2022-09-17T02:18:58.242Z,7.22
2022-09-17T02:21:32.178Z,5.32
2022-09-17T02:24:10.078Z,8.98
2022-09-17T02:26:40.281Z,5.82
2022-09-17T02:29:11.677Z,5.47
2022-09-17T02:31:43.743Z,6.53
2022-09-17T02:34:13.158Z,5.47
2022-09-17T02:36:42.718Z,7.43
2022-09-17T02:39:12.196Z,4.88
2022-09-17T02:41:47.246Z,6.70
2022-09-17T02:44:21.877Z,7.38
2022-09-17T02:47:11.691Z,4.00
2022-09-17T02:50:01.661Z,6.43
2022-09-17T02:52:35.198Z,6.80
2022-09-17T02:55:07.498Z,6.10
2022-09-17T02:57:39.706Z,4.82
2022-09-17T03:00:12.189Z,6.53
2022-09-17T03:02:45.964Z,6.85
2022-09-17T03:05:15.364Z,5.85
2022-09-17T03:07:44.773Z,6.28
2022-09-17T03:10:14.227Z,5.28
2022-09-17T03:12:43.665Z,6.07
2022-09-17T03:15:13.511Z,5.88
2022-09-17T03:17:47.275Z,7.20
2022-09-17T03:20:19.907Z,5.75
2022-09-17T03:22:49.361Z,4.93
2022-09-17T03:25:18.952Z,8.43
2022-09-17T03:27:48.377Z,6.38
2022-09-17T03:30:17.873Z,5.40
2022-09-17T03:32:49.927Z,4.88
2022-09-17T03:35:19.361Z,7.47
2022-09-17T03:37:49.146Z,4.88
2022-09-17T03:40:19.935Z,5.88
2022-09-17T03:42:49.504Z,5.55
2022-09-17T03:45:18.961Z,5.22
2022-09-17T03:47:50.952Z,6.80
2022-09-17T03:50:20.537Z,8.48
2022-09-17T03:52:49.968Z,4.10
2022-09-17T03:55:19.957Z,5.50
2022-09-17T03:57:49.347Z,5.75
2022-09-17T04:00:19.469Z,4.80
2022-09-17T04:02:51.537Z,4.70
2022-09-17T04:05:21.026Z,5.75
2022-09-17T04:07:50.466Z,6.30
2022-09-17T04:10:20.122Z,6.97
2022-09-17T04:12:49.518Z,5.47
2022-09-17T04:15:18.969Z,8.55
2022-09-17T04:17:50.937Z,7.78
2022-09-17T04:20:20.414Z,5.97
2022-09-17T04:22:49.806Z,5.28
2022-09-17T04:25:19.613Z,7.95
2022-09-17T04:27:49.082Z,7.97
2022-09-17T04:30:18.670Z,8.32
2022-09-17T04:32:50.828Z,6.18
2022-09-17T04:35:20.336Z,5.82
2022-09-17T04:37:55.177Z,6.13
2022-09-17T04:40:24.659Z,6.13
2022-09-17T04:42:55.270Z,10.32
2022-09-17T04:45:24.749Z,8.05
2022-09-17T04:47:56.720Z,6.70
2022-09-17T04:50:26.214Z,9.85
2022-09-17T04:52:55.609Z,9.43
2022-09-17T04:55:25.388Z,5.05
2022-09-17T04:57:55.437Z,6.80
2022-09-17T05:00:25.090Z,4.63
2022-09-17T05:02:57.676Z,6.20
2022-09-17T05:05:27.238Z,8.13
2022-09-17T05:07:56.648Z,8.07
2022-09-17T05:10:26.451Z,9.95
2022-09-17T05:12:56.941Z,8.13
2022-09-17T05:15:27.839Z,4.63
2022-09-17T05:17:59.816Z,6.47
2022-09-17T05:20:29.340Z,8.30
2022-09-17T05:22:58.722Z,6.05
2022-09-17T05:25:28.124Z,7.13
2022-09-17T05:27:57.517Z,9.63
2022-09-17T05:30:26.949Z,5.63
2022-09-17T05:33:04.324Z,6.72
2022-09-17T05:35:35.882Z,7.03
2022-09-17T05:38:06.198Z,6.40
2022-09-17T05:40:37.428Z,8.48
2022-09-17T05:43:07.684Z,8.20
2022-09-17T05:45:37.597Z,9.10
2022-09-17T05:48:11.205Z,6.78
2022-09-17T05:50:41.361Z,8.75
2022-09-17T05:53:11.525Z,6.90
2022-09-17T05:55:41.111Z,11.67
2022-09-17T05:58:14.265Z,10.45
2022-09-17T06:00:43.916Z,7.75
2022-09-17T06:03:16.276Z,8.13
2022-09-17T06:05:45.809Z,6.63
2022-09-17T06:08:15.205Z,10.82
2022-09-17T06:10:44.608Z,8.85
2022-09-17T06:13:14.012Z,13.57
2022-09-17T06:15:43.416Z,11.23
2022-09-17T06:18:12.831Z,8.20
2022-09-17T06:20:44.840Z,8.85
2022-09-17T06:23:16.098Z,10.20
2022-09-17T06:25:45.557Z,11.50
2022-09-17T06:28:14.962Z,12.68
2022-09-17T06:30:44.364Z,11.18
2022-09-17T06:33:13.770Z,10.60
2022-09-17T06:35:45.814Z,14.00
2022-09-17T06:38:15.251Z,10.75
2022-09-17T06:40:44.640Z,10.40
2022-09-17T06:43:14.024Z,10.82
2022-09-17T06:45:43.432Z,12.35
2022-09-17T06:48:12.816Z,11.63
2022-09-17T06:50:44.822Z,11.48
2022-09-17T06:53:14.204Z,11.95
2022-09-17T06:55:43.690Z,11.00
2022-09-17T06:58:13.078Z,9.27
2022-09-17T07:00:42.522Z,10.27
2022-09-17T07:03:12.207Z,8.38
2022-09-17T07:05:41.900Z,7.57
2022-09-17T07:08:13.901Z,8.30
2022-09-17T07:10:43.309Z,9.75
2022-09-17T07:13:12.696Z,10.52
2022-09-17T07:15:42.195Z,8.00
2022-09-17T07:18:11.816Z,8.38
2022-09-17T07:20:41.581Z,9.32
2022-09-17T07:23:10.969Z,9.68
2022-09-17T07:25:42.986Z,7.72
2022-09-17T07:28:12.388Z,8.70
2022-09-17T07:30:41.806Z,9.07
2022-09-17T07:33:11.321Z,9.45
2022-09-17T07:35:40.717Z,10.23
2022-09-17T07:38:10.100Z,8.02
2022-09-17T07:40:39.534Z,6.95
2022-09-17T07:43:11.538Z,7.40
2022-09-17T07:45:40.954Z,8.00
2022-09-17T07:48:10.355Z,8.40
2022-09-17T07:50:40.855Z,9.18
2022-09-17T07:53:10.248Z,9.45
2022-09-17T07:55:39.660Z,8.48
2022-09-17T07:58:11.721Z,8.85
2022-09-17T08:00:41.539Z,7.72
2022-09-17T08:03:11.012Z,9.38
2022-09-17T08:05:40.480Z,8.98
2022-09-17T08:08:09.906Z,6.40
2022-09-17T08:10:39.305Z,6.45
2022-09-17T08:13:11.267Z,10.63
2022-09-17T08:15:40.684Z,8.00
2022-09-17T08:18:10.079Z,9.15
2022-09-17T08:20:39.473Z,9.52
2022-09-17T08:23:09.256Z,6.15
2022-09-17T08:25:38.665Z,7.00
2022-09-17T08:28:10.642Z,5.93
2022-09-17T08:30:40.057Z,6.22
2022-09-17T08:33:09.432Z,6.72
2022-09-17T08:35:38.839Z,7.15
2022-09-17T08:38:08.425Z,6.50
2022-09-17T08:40:39.250Z,6.75
2022-09-17T08:43:11.514Z,8.02
2022-09-17T08:45:40.968Z,6.82
2022-09-17T08:48:11.768Z,6.32
2022-09-17T08:50:42.121Z,4.68
2022-09-17T08:53:38.562Z,6.75
2022-09-17T08:56:09.839Z,5.30
2022-09-17T08:58:57.117Z,6.78
2022-09-17T09:01:34.449Z,6.10
2022-09-17T09:04:19.745Z,5.45
2022-09-17T09:06:50.690Z,7.00
2022-09-17T09:09:21.147Z,8.15
2022-09-17T09:11:51.237Z,5.05
2022-09-17T09:14:26.377Z,7.00
2022-09-17T09:16:55.986Z,7.68
2022-09-17T09:19:27.023Z,5.72
2022-09-17T09:24:34.087Z,8.15
2022-09-17T09:27:06.456Z,7.20
2022-09-17T09:29:41.831Z,6.40
2022-09-17T09:32:17.999Z,4.97
2022-09-17T09:34:47.440Z,7.05
2022-09-17T09:37:19.001Z,6.03
2022-09-17T09:39:48.398Z,6.78
2022-09-17T09:42:21.687Z,5.57
2022-09-17T09:44:53.648Z,7.10
2022-09-17T09:47:32.588Z,9.68
2022-09-17T09:50:08.389Z,4.82
2022-09-17T09:52:45.236Z,7.20
2022-09-17T09:55:26.688Z,6.07
2022-09-17T09:57:58.281Z,6.30
2022-09-17T10:00:31.911Z,7.78
2022-09-17T10:03:04.521Z,7.78
2022-09-17T10:05:33.942Z,7.32
2022-09-17T10:08:03.567Z,7.70
2022-09-17T10:10:32.953Z,6.13
2022-09-17T10:13:10.105Z,10.43
2022-09-17T10:15:42.652Z,7.25
2022-09-17T10:18:18.705Z,7.05
2022-09-17T10:20:58.345Z,6.05
2022-09-17T10:23:29.214Z,6.82
2022-09-17T10:25:58.799Z,5.80
2022-09-17T10:28:48.359Z,8.00
2022-09-17T10:31:20.428Z,5.05
2022-09-17T10:33:58.881Z,6.00
2022-09-17T10:36:40.266Z,5.78
2022-09-17T10:39:34.608Z,5.13
2022-09-17T10:42:04.856Z,4.15
2022-09-17T10:44:35.999Z,4.37
2022-09-17T10:47:13.577Z,5.22
2022-09-17T10:49:44.090Z,3.40
2022-09-17T10:52:15.930Z,4.93
2022-09-17T10:55:12.442Z,4.38
2022-09-17T10:57:55.179Z,2.22
2022-09-17T11:00:25.438Z,5.78
2022-09-17T11:03:20.950Z,3.27
2022-09-17T11:06:21.537Z,3.80
2022-09-17T11:08:57.457Z,6.72
2022-09-17T11:11:34.557Z,4.72
2022-09-17T11:14:07.823Z,5.68
2022-09-17T11:16:40.096Z,5.22
2022-09-17T11:19:17.437Z,3.67
2022-09-17T11:21:49.126Z,4.95
2022-09-17T11:24:52.817Z,3.65
2022-09-17T11:27:32.530Z,4.35
2022-09-17T11:30:07.168Z,4.20
2022-09-17T11:32:53.645Z,3.92
2022-09-17T11:35:26.852Z,2.95
2022-09-17T11:38:00.127Z,5.85
2022-09-17T11:40:35.444Z,5.65
2022-09-17T11:43:06.361Z,2.90
2022-09-17T11:45:37.773Z,3.85
2022-09-17T11:48:08.568Z,2.58
2022-09-17T11:50:43.842Z,4.72
2022-09-17T11:53:17.977Z,2.97
2022-09-17T11:55:49.198Z,1.88
2022-09-17T11:58:20.047Z,1.85
2022-09-17T12:00:52.714Z,2.80
2022-09-17T12:03:26.352Z,4.85
2022-09-17T12:05:59.808Z,4.20
2022-09-17T12:08:32.106Z,3.38
2022-09-17T12:11:04.030Z,3.47
2022-09-17T12:13:35.606Z,4.70
2022-09-17T12:16:18.103Z,2.17
2022-09-17T12:18:51.157Z,5.18
2022-09-17T12:21:25.565Z,4.47
2022-09-17T12:23:57.128Z,3.08
2022-09-17T12:26:42.882Z,2.35
2022-09-17T12:29:16.988Z,1.55
2022-09-17T12:31:48.467Z,4.20
2022-09-17T12:34:29.665Z,3.67
2022-09-17T12:39:39.890Z,3.40
2022-09-17T12:42:13.710Z,3.08
2022-09-17T12:45:05.208Z,2.50
2022-09-17T12:47:52.711Z,1.80
2022-09-17T12:50:23.321Z,2.28
2022-09-17T12:53:05.260Z,2.72
2022-09-17T12:55:42.906Z,2.25
2022-09-17T12:58:18.727Z,1.90
2022-09-17T13:00:50.910Z,2.55
2022-09-17T13:03:23.188Z,2.80
2022-09-17T13:06:23.861Z,4.00
2022-09-17T13:09:18.104Z,2.40
2022-09-17T13:12:16.477Z,3.20
2022-09-17T13:14:54.806Z,3.75
2022-09-17T13:17:27.419Z,3.35
2022-09-17T13:20:00.434Z,3.72
2022-09-17T13:22:33.514Z,3.65
2022-09-17T13:25:10.193Z,3.28
2022-09-17T13:27:39.691Z,2.70
2022-09-17T13:30:11.059Z,5.72
2022-09-17T13:32:56.183Z,5.20
2022-09-17T13:35:49.680Z,6.55
2022-09-17T13:38:23.084Z,4.88
2022-09-17T13:40:57.556Z,4.82
2022-09-17T13:43:28.065Z,5.07
2022-09-17T13:46:17.465Z,3.17
2022-09-17T13:48:51.937Z,2.63
2022-09-17T13:51:49.395Z,3.15
2022-09-17T13:54:18.910Z,3.25
2022-09-17T13:56:52.433Z,4.45
2022-09-17T13:59:23.683Z,2.45
2022-09-17T14:02:04.275Z,4.90
2022-09-17T14:04:38.253Z,3.53
2022-09-17T14:07:35.509Z,3.45
2022-09-17T14:10:05.912Z,3.00
2022-09-17T14:12:57.607Z,2.95
2022-09-17T14:15:57.623Z,3.97
2022-09-17T14:18:39.906Z,2.13
2022-09-17T14:21:24.438Z,5.05
2022-09-17T14:23:57.604Z,3.92
2022-09-17T14:26:51.203Z,5.20
2022-09-17T14:29:33.457Z,5.35
2022-09-17T14:32:02.882Z,3.72
2022-09-17T14:34:32.309Z,3.15
2022-09-17T14:37:01.700Z,4.53
2022-09-17T14:39:33.077Z,5.03
2022-09-17T14:42:02.478Z,3.65
2022-09-17T14:44:34.675Z,2.92
2022-09-17T14:47:05.082Z,4.95
2022-09-17T14:49:36.041Z,2.83
2022-09-17T14:52:06.765Z,2.60
2022-09-17T14:54:36.738Z,6.47
2022-09-17T14:57:06.879Z,4.45
2022-09-17T14:59:52.346Z,3.40
2022-09-17T15:02:30.317Z,3.25
2022-09-17T15:05:00.266Z,4.32
2022-09-17T15:07:30.033Z,6.13
2022-09-17T15:10:09.514Z,5.10
2022-09-17T15:12:38.955Z,3.15
2022-09-17T15:15:17.080Z,4.80
2022-09-17T15:17:49.814Z,2.75
2022-09-17T15:20:21.884Z,3.95
2022-09-17T15:22:55.261Z,3.95
2022-09-17T15:25:26.528Z,5.28
2022-09-17T15:27:56.448Z,3.80
2022-09-17T15:30:28.514Z,5.20
2022-09-17T15:32:58.503Z,3.13
2022-09-17T15:35:30.235Z,3.72
2022-09-17T15:38:21.607Z,3.15
2022-09-17T15:40:49.663Z,1.40
2022-09-17T15:43:20.387Z,1.02
2022-09-17T15:45:52.416Z,1.77
2022-09-17T15:48:35.944Z,2.50
2022-09-17T15:51:06.999Z,1.05
2022-09-17T15:56:08.107Z,0.82
2022-09-17T15:58:40.015Z,1.30
2022-09-17T16:01:42.226Z,1.65
2022-09-17T16:04:20.457Z,1.25
2022-09-17T16:06:58.730Z,2.55
2022-09-17T16:09:46.878Z,1.38
2022-09-17T16:12:18.496Z,1.95
2022-09-17T16:14:49.245Z,2.50
2022-09-17T16:17:33.098Z,1.60
2022-09-17T16:20:08.882Z,1.83
2022-09-17T16:22:38.293Z,0.85
2022-09-17T16:25:08.775Z,1.55
2022-09-17T16:27:47.072Z,1.75
2022-09-17T16:30:18.141Z,1.52
2022-09-17T16:32:47.621Z,3.03
2022-09-17T16:35:20.513Z,3.22
2022-09-17T16:37:51.394Z,1.63
2022-09-17T16:40:21.273Z,0.90
2022-09-17T16:42:50.842Z,3.17
2022-09-17T16:45:20.326Z,1.98
2022-09-17T16:47:49.893Z,1.92
2022-09-17T16:50:22.045Z,1.48
2022-09-17T16:52:51.477Z,2.53
2022-09-17T16:55:21.670Z,2.63
2022-09-17T16:57:51.144Z,4.00
2022-09-17T17:00:22.643Z,1.95
2022-09-17T17:02:55.664Z,2.80
2022-09-17T17:05:28.164Z,3.40
2022-09-17T17:07:57.705Z,4.50
2022-09-17T17:10:27.873Z,2.63
2022-09-17T17:12:57.297Z,1.87
2022-09-17T17:15:27.155Z,2.25
2022-09-17T17:17:57.533Z,4.55
2022-09-17T17:20:29.527Z,3.22
2022-09-17T17:22:58.938Z,2.45
2022-09-17T17:25:28.650Z,4.32
2022-09-17T17:27:58.053Z,4.47
2022-09-17T17:30:31.734Z,4.80
2022-09-17T17:33:04.095Z,3.30
2022-09-17T17:35:36.088Z,2.80
2022-09-17T17:38:05.515Z,4.45
2022-09-17T17:40:34.989Z,5.40
2022-09-17T17:43:04.455Z,5.47
2022-09-17T17:45:33.854Z,3.60
2022-09-17T17:48:03.571Z,4.72
2022-09-17T17:50:32.962Z,3.55
2022-09-17T17:53:04.936Z,4.38
2022-09-17T17:55:34.432Z,5.20
2022-09-17T17:58:03.826Z,3.30
2022-09-17T18:00:33.202Z,4.25
2022-09-17T18:03:02.674Z,5.38
2022-09-17T18:05:32.134Z,3.78
2022-09-17T18:08:01.550Z,4.85
2022-09-17T18:10:33.528Z,4.75
2022-09-17T18:13:02.923Z,3.78
2022-09-17T18:15:32.305Z,3.65
2022-09-17T18:18:01.698Z,5.13
2022-09-17T18:20:31.076Z,3.88
2022-09-17T18:23:00.469Z,5.13
2022-09-17T18:25:29.921Z,2.95
2022-09-17T18:28:01.891Z,4.03
2022-09-17T18:30:32.277Z,4.18
2022-09-17T18:33:01.683Z,5.32
2022-09-17T18:35:31.057Z,4.03
2022-09-17T18:38:00.433Z,3.00
2022-09-17T18:40:29.864Z,4.85
2022-09-17T18:43:01.869Z,2.88
2022-09-17T18:45:32.074Z,2.78
2022-09-17T18:48:01.448Z,3.60
2022-09-17T18:50:30.847Z,4.15
2022-09-17T18:53:00.229Z,4.40
2022-09-17T18:55:29.717Z,3.00
2022-09-17T18:58:01.682Z,2.85
2022-09-17T19:00:31.114Z,2.50
2022-09-17T19:03:00.573Z,4.65
2022-09-17T19:05:29.988Z,2.10
2022-09-17T19:07:59.370Z,2.55
2022-09-17T19:10:29.066Z,3.75
2022-09-17T19:12:58.439Z,5.53
2022-09-17T19:15:30.455Z,2.53
2022-09-17T19:17:59.836Z,3.28
2022-09-17T19:20:29.801Z,3.50
2022-09-17T19:22:59.230Z,6.45
2022-09-17T19:25:29.152Z,6.15
2022-09-17T19:27:58.618Z,2.97
2022-09-17T19:30:30.967Z,3.90
2022-09-17T19:33:00.592Z,6.57
2022-09-17T19:35:30.369Z,6.28
2022-09-17T19:38:03.581Z,2.55
2022-09-17T19:40:33.041Z,4.30
2022-09-17T19:43:02.452Z,4.43
2022-09-17T19:45:34.420Z,3.55
2022-09-17T19:48:04.128Z,3.70
2022-09-17T19:50:36.184Z,5.90
2022-09-17T19:53:05.577Z,4.95
2022-09-17T19:55:34.973Z,7.13
2022-09-17T19:58:04.640Z,5.65
2022-09-17T20:00:37.988Z,4.43
2022-09-17T20:03:07.462Z,6.93
2022-09-17T20:05:36.904Z,5.07
2022-09-17T20:08:06.416Z,5.88
2022-09-17T20:10:37.341Z,4.15
2022-09-17T20:13:07.150Z,3.50
2022-09-17T20:15:39.594Z,5.63
2022-09-17T20:18:09.077Z,3.97
2022-09-17T20:20:40.893Z,5.18
2022-09-17T20:23:10.400Z,4.72
2022-09-17T20:25:39.805Z,6.65
2022-09-17T20:28:09.632Z,4.07
2022-09-17T20:30:41.600Z,6.35
2022-09-17T20:33:10.979Z,5.35
2022-09-17T20:35:40.380Z,4.20
2022-09-17T20:41:03.521Z,4.80
2022-09-17T20:43:35.572Z,5.50
2022-09-17T20:46:08.467Z,6.13
2022-09-17T20:48:38.051Z,4.30
2022-09-17T20:51:08.442Z,5.80
2022-09-17T20:53:38.523Z,5.95
2022-09-17T20:56:08.840Z,6.40
2022-09-17T20:58:45.466Z,5.18
2022-09-17T21:01:20.537Z,7.53
2022-09-17T21:03:50.961Z,5.82
2022-09-17T21:06:20.633Z,5.78
2022-09-17T21:08:50.169Z,8.05
2022-09-17T21:11:19.898Z,5.55
2022-09-17T21:13:49.342Z,8.50
2022-09-17T21:16:21.453Z,7.93
2022-09-17T21:18:51.000Z,8.88
2022-09-17T21:21:20.713Z,7.82
2022-09-17T21:23:50.778Z,7.28
2022-09-17T21:26:20.857Z,6.95
2022-09-17T21:28:51.257Z,7.53
2022-09-17T21:31:25.443Z,6.20
2022-09-17T21:33:58.484Z,7.55
2022-09-17T21:36:28.856Z,10.20
2022-09-17T21:38:59.098Z,5.55
2022-09-17T21:41:28.674Z,8.63
2022-09-17T21:43:58.085Z,9.10
2022-09-17T21:46:30.841Z,14.07
2022-09-17T21:49:02.240Z,8.98
2022-09-17T21:51:33.910Z,12.70
2022-09-17T21:54:04.098Z,15.20
2022-09-17T21:56:33.808Z,6.20
2022-09-17T21:59:04.253Z,10.32
2022-09-17T22:01:39.663Z,13.35
2022-09-17T22:04:09.928Z,8.20
2022-09-17T22:06:39.663Z,10.80
2022-09-17T22:09:10.159Z,7.63
2022-09-17T22:11:39.913Z,7.57
2022-09-17T22:14:12.472Z,8.85
2022-09-17T22:16:45.124Z,7.95
2022-09-17T22:19:16.954Z,8.73
2022-09-17T22:21:47.500Z,11.75
2022-09-17T22:24:17.619Z,11.75
2022-09-17T22:26:49.844Z,7.85
2022-09-17T22:29:22.397Z,8.95
2022-09-17T22:31:54.369Z,8.63
2022-09-17T22:34:25.896Z,10.82
2022-09-17T22:36:55.349Z,13.00
2022-09-17T22:39:24.894Z,23.98
2022-09-17T22:41:54.758Z,17.27
2022-09-17T22:44:24.174Z,16.40
2022-09-17T22:46:56.767Z,13.10
2022-09-17T22:49:26.210Z,18.10
2022-09-17T22:51:55.617Z,24.42
2022-09-17T22:54:25.037Z,22.42
2022-09-17T22:56:54.421Z,10.85
2022-09-17T22:59:23.826Z,8.77
2022-09-17T23:01:55.846Z,17.35
2022-09-17T23:04:25.265Z,11.10
2022-09-17T23:06:54.670Z,7.85
2022-09-17T23:09:24.097Z,7.75
2022-09-17T23:11:53.494Z,37.13
2022-09-17T23:14:22.922Z,12.63
2022-09-17T23:16:52.308Z,13.75
2022-09-17T23:19:24.413Z,20.90
2022-09-17T23:21:53.845Z,14.07
2022-09-17T23:24:24.027Z,7.55
2022-09-17T23:26:53.481Z,8.18
2022-09-17T23:29:22.984Z,10.77
2022-09-17T23:31:52.378Z,7.47
2022-09-17T23:34:24.659Z,7.95
2022-09-17T23:36:54.052Z,7.68
2022-09-17T23:39:23.487Z,9.50
2022-09-17T23:41:53.004Z,5.82
2022-09-17T23:44:22.439Z,5.25
2022-09-17T23:46:51.889Z,11.02
2022-09-17T23:49:23.938Z,5.05
2022-09-17T23:51:53.349Z,9.18
2022-09-17T23:54:23.155Z,5.82
2022-09-17T23:56:52.570Z,7.53
2022-09-17T23:59:21.991Z,6.35
